TAF Text Data
IDs:
Format:
Raw Decoded Include METAR

Data at: 2054 UTC 01 Dec 2021

KLAL 011739Z 0118/0218 10006KT P6SM FEW050 SCT250
  FM012300 VRB03KT P6SM FEW250
  FM021500 34006KT P6SM SKC